createdAt,value
2023-05-10T00:01:00.529Z,13.55
2023-05-10T00:03:46.291Z,10.55
2023-05-10T00:06:32.824Z,10.43
2023-05-10T00:09:18.639Z,9.80
2023-05-10T00:12:04.773Z,10.43
2023-05-10T00:14:50.582Z,13.23
2023-05-10T00:17:36.051Z,10.07
2023-05-10T00:20:21.586Z,11.77
2023-05-10T00:23:06.903Z,10.75
2023-05-10T00:25:52.369Z,11.88
2023-05-10T00:28:38.327Z,11.13
2023-05-10T00:31:23.583Z,10.80
2023-05-10T00:34:10.094Z,11.90
2023-05-10T00:36:55.536Z,11.98
2023-05-10T00:39:41.516Z,10.63
2023-05-10T00:42:26.980Z,11.55
2023-05-10T00:45:13.725Z,10.23
2023-05-10T00:48:00.977Z,9.70
2023-05-10T00:50:46.852Z,10.57
2023-05-10T00:53:33.500Z,11.55
2023-05-10T00:56:19.530Z,9.23
2023-05-10T00:59:05.348Z,9.38
2023-05-10T01:01:52.635Z,10.57
2023-05-10T01:04:38.849Z,11.02
2023-05-10T01:07:24.680Z,10.32
2023-05-10T01:10:11.583Z,12.45
2023-05-10T01:12:57.962Z,10.35
2023-05-10T01:15:43.530Z,10.63
2023-05-10T01:18:31.010Z,11.25
2023-05-10T01:21:36.361Z,11.82
2023-05-10T01:24:39.403Z,10.40
2023-05-10T01:28:02.768Z,10.80
2023-05-10T01:31:07.350Z,12.50
2023-05-10T01:34:00.661Z,18.75
2023-05-10T01:36:56.690Z,13.52
2023-05-10T01:39:47.987Z,10.75
2023-05-10T01:42:41.485Z,11.38
2023-05-10T01:45:35.046Z,13.52
2023-05-10T01:48:23.626Z,16.83
2023-05-10T01:51:09.760Z,13.60
2023-05-10T01:54:01.411Z,14.10
2023-05-10T01:56:50.145Z,9.82
2023-05-10T01:59:42.379Z,10.20
2023-05-10T02:02:28.708Z,12.30
2023-05-10T02:05:16.322Z,11.02
2023-05-10T02:08:04.246Z,17.75
2023-05-10T02:10:52.787Z,11.75
2023-05-10T02:13:40.512Z,10.25
2023-05-10T02:16:27.631Z,10.60
2023-05-10T02:19:15.320Z,8.75
2023-05-10T02:22:01.940Z,12.10
2023-05-10T02:24:48.573Z,12.30
2023-05-10T02:27:34.825Z,12.65
2023-05-10T02:30:20.481Z,12.27
2023-05-10T02:33:07.040Z,11.88
2023-05-10T02:35:53.453Z,12.30
2023-05-10T02:38:39.099Z,12.95
2023-05-10T02:41:25.521Z,10.98
2023-05-10T02:44:11.817Z,12.27
2023-05-10T02:46:58.652Z,14.55
2023-05-10T02:49:44.165Z,15.85
2023-05-10T02:52:32.302Z,11.05
2023-05-10T02:55:20.602Z,11.75
2023-05-10T03:00:51.944Z,11.27
2023-05-10T03:03:37.497Z,10.40
2023-05-10T03:06:23.259Z,10.75
2023-05-10T03:09:10.518Z,15.07
2023-05-10T03:12:11.483Z,13.68
2023-05-10T03:15:44.383Z,12.07
2023-05-10T03:18:38.731Z,10.55
2023-05-10T03:24:12.961Z,12.90
2023-05-10T03:27:03.905Z,11.35
2023-05-10T03:29:52.220Z,18.23
2023-05-10T03:35:24.887Z,9.05
2023-05-10T03:38:10.641Z,16.13
2023-05-10T03:40:56.784Z,15.38
2023-05-10T03:43:42.823Z,75.88
2023-05-10T03:46:28.461Z,269.15
2023-05-10T03:49:14.459Z,340.17
2023-05-10T03:52:00.357Z,303.70
2023-05-10T03:54:49.165Z,211.52
2023-05-10T03:57:35.282Z,106.88
2023-05-10T04:00:21.534Z,61.17
2023-05-10T04:03:11.201Z,30.42
2023-05-10T04:06:02.302Z,23.55
2023-05-10T04:08:48.227Z,15.02
2023-05-10T04:11:34.287Z,17.83
2023-05-10T04:14:19.682Z,12.77
2023-05-10T04:17:05.525Z,13.55
2023-05-10T04:19:54.316Z,13.48
2023-05-10T04:22:40.438Z,10.73
2023-05-10T04:25:26.346Z,18.02
2023-05-10T04:28:12.148Z,14.13
2023-05-10T04:31:05.028Z,14.55
2023-05-10T04:33:51.208Z,15.43
2023-05-10T04:36:37.674Z,12.25
2023-05-10T04:39:23.384Z,28.00
2023-05-10T04:42:12.860Z,14.32
2023-05-10T04:44:59.021Z,13.82
2023-05-10T04:47:45.030Z,15.07
2023-05-10T04:50:30.966Z,14.30
2023-05-10T04:53:16.713Z,17.50
2023-05-10T04:56:02.229Z,13.85
2023-05-10T04:58:48.201Z,13.57
2023-05-10T05:01:33.975Z,16.98
2023-05-10T05:04:19.472Z,19.92
2023-05-10T05:07:04.748Z,13.52
2023-05-10T05:09:50.229Z,13.38
2023-05-10T05:12:36.380Z,15.15
2023-05-10T05:15:22.187Z,10.55
2023-05-10T05:18:07.695Z,13.95
2023-05-10T05:20:53.617Z,16.83
2023-05-10T05:23:40.602Z,12.20
2023-05-10T05:26:29.272Z,10.02
2023-05-10T05:29:14.513Z,10.57
2023-05-10T05:32:00.221Z,13.55
2023-05-10T05:34:46.826Z,11.65
2023-05-10T05:37:32.636Z,11.65
2023-05-10T05:40:17.828Z,11.98
2023-05-10T05:43:04.102Z,13.23
2023-05-10T05:45:50.025Z,12.43
2023-05-10T05:48:36.148Z,10.48
2023-05-10T05:51:21.753Z,11.00
2023-05-10T05:54:07.702Z,12.43
2023-05-10T05:56:59.837Z,12.55
2023-05-10T05:59:47.008Z,14.85
2023-05-10T06:02:32.514Z,13.75
2023-05-10T06:05:18.579Z,11.77
2023-05-10T06:08:04.526Z,12.07
2023-05-10T06:10:50.335Z,11.73
2023-05-10T06:13:36.420Z,11.80
2023-05-10T06:16:22.228Z,11.60
2023-05-10T06:19:08.375Z,10.60
2023-05-10T06:21:54.054Z,9.45
2023-05-10T06:24:39.540Z,9.32
2023-05-10T06:27:25.533Z,10.90
2023-05-10T06:30:13.232Z,9.57
2023-05-10T06:32:59.869Z,10.07
2023-05-10T06:35:45.289Z,9.45
2023-05-10T06:38:31.194Z,10.57
2023-05-10T06:41:16.732Z,7.85
2023-05-10T06:44:02.107Z,11.13
2023-05-10T06:46:48.014Z,7.95
2023-05-10T06:49:33.808Z,10.27
2023-05-10T06:52:19.329Z,7.13
2023-05-10T06:55:05.809Z,6.95
2023-05-10T06:57:51.776Z,8.40
2023-05-10T07:00:41.467Z,10.40
2023-05-10T07:03:27.495Z,8.23
2023-05-10T07:06:21.639Z,6.57
2023-05-10T07:09:11.343Z,9.85
2023-05-10T07:11:58.351Z,7.40
2023-05-10T07:14:44.190Z,7.88
2023-05-10T07:17:29.787Z,6.00
2023-05-10T07:20:15.627Z,7.15
2023-05-10T07:23:01.195Z,8.75
2023-05-10T07:25:52.468Z,7.95
2023-05-10T07:28:38.628Z,8.10
2023-05-10T07:31:24.186Z,8.55
2023-05-10T07:34:09.987Z,6.78
2023-05-10T07:36:55.482Z,8.02
2023-05-10T07:39:40.793Z,8.10
2023-05-10T07:42:26.360Z,7.10
2023-05-10T07:45:12.463Z,7.28
2023-05-10T07:47:58.601Z,7.05
2023-05-10T07:50:44.395Z,6.35
2023-05-10T07:53:30.219Z,5.13
2023-05-10T07:56:30.450Z,4.93
2023-05-10T07:59:17.546Z,7.20
2023-05-10T08:02:03.308Z,6.93
2023-05-10T08:04:49.099Z,6.90
2023-05-10T08:07:34.905Z,8.35
2023-05-10T08:10:20.716Z,4.90
2023-05-10T08:13:06.285Z,7.78
2023-05-10T08:15:54.140Z,5.72
2023-05-10T08:18:40.929Z,3.92
2023-05-10T08:21:27.324Z,7.45
2023-05-10T08:24:12.897Z,7.63
2023-05-10T08:26:59.004Z,6.63
2023-05-10T08:29:50.098Z,5.50
2023-05-10T08:32:36.429Z,6.20
2023-05-10T08:35:22.503Z,6.40
2023-05-10T08:38:08.069Z,5.28
2023-05-10T08:40:57.687Z,7.45
2023-05-10T08:43:47.348Z,6.22
2023-05-10T08:46:35.913Z,7.07
2023-05-10T08:49:22.723Z,7.93
2023-05-10T08:52:09.377Z,5.82
2023-05-10T08:54:54.841Z,5.47
2023-05-10T08:57:40.486Z,5.40
2023-05-10T09:00:26.567Z,4.68
2023-05-10T09:03:12.346Z,6.97
2023-05-10T09:05:58.249Z,5.93
2023-05-10T09:08:44.019Z,6.85
2023-05-10T09:11:31.011Z,5.90
2023-05-10T09:14:16.956Z,8.50
2023-05-10T09:17:02.801Z,6.00
2023-05-10T09:19:48.680Z,7.53
2023-05-10T09:22:34.938Z,7.47
2023-05-10T09:25:20.826Z,4.43
2023-05-10T09:28:10.637Z,7.55
2023-05-10T09:30:56.815Z,5.43
2023-05-10T09:33:47.046Z,6.03
2023-05-10T09:36:33.233Z,3.72
2023-05-10T09:39:19.022Z,4.28
2023-05-10T09:42:06.623Z,6.18
2023-05-10T09:44:52.413Z,6.47
2023-05-10T09:47:38.378Z,5.30
2023-05-10T09:50:24.694Z,6.05
2023-05-10T09:53:10.006Z,5.75
2023-05-10T09:55:55.440Z,6.53
2023-05-10T09:58:41.481Z,4.43
2023-05-10T10:01:30.591Z,7.60
2023-05-10T10:04:16.358Z,5.55
2023-05-10T10:07:05.966Z,5.35
2023-05-10T10:09:51.912Z,5.50
2023-05-10T10:12:38.075Z,5.80
2023-05-10T10:15:24.667Z,4.75
2023-05-10T10:18:14.671Z,6.03
2023-05-10T10:21:00.749Z,5.40
2023-05-10T10:23:47.215Z,7.18
2023-05-10T10:26:36.071Z,6.00
2023-05-10T10:30:02.580Z,5.32
2023-05-10T10:33:05.636Z,4.80
2023-05-10T10:35:56.926Z,5.20
2023-05-10T10:38:49.077Z,4.43
2023-05-10T10:41:36.099Z,3.95
2023-05-10T10:44:37.747Z,7.20
2023-05-10T10:47:25.760Z,3.47
2023-05-10T10:50:13.953Z,6.43
2023-05-10T10:53:11.846Z,6.03
2023-05-10T10:56:08.524Z,5.90
2023-05-10T10:58:54.954Z,5.47
2023-05-10T11:01:43.731Z,4.95
2023-05-10T11:04:29.490Z,5.72
2023-05-10T11:07:18.910Z,5.00
2023-05-10T11:10:07.721Z,5.25
2023-05-10T11:13:06.986Z,4.88
2023-05-10T11:15:53.223Z,5.50
2023-05-10T11:18:39.015Z,5.28
2023-05-10T11:21:24.660Z,8.40
2023-05-10T11:24:16.484Z,5.47
2023-05-10T11:27:02.084Z,4.13
2023-05-10T11:29:47.684Z,5.07
2023-05-10T11:32:33.232Z,5.20
2023-05-10T11:35:18.542Z,5.68
2023-05-10T11:38:03.784Z,5.82
2023-05-10T11:40:52.884Z,5.30
2023-05-10T11:43:39.723Z,5.40
2023-05-10T11:46:30.551Z,4.63
2023-05-10T11:49:16.177Z,5.45
2023-05-10T11:52:08.588Z,6.65
2023-05-10T11:54:55.569Z,6.97
2023-05-10T11:57:42.887Z,5.90
2023-05-10T12:00:30.073Z,6.13
2023-05-10T12:03:15.935Z,7.30
2023-05-10T12:06:02.693Z,7.78
2023-05-10T12:08:49.272Z,5.47
2023-05-10T12:11:40.107Z,6.38
2023-05-10T12:14:27.343Z,5.30
2023-05-10T12:17:15.483Z,7.80
2023-05-10T12:20:18.517Z,5.18
2023-05-10T12:23:04.854Z,5.22
2023-05-10T12:25:50.523Z,5.65
2023-05-10T12:28:36.609Z,6.47
2023-05-10T12:31:22.542Z,6.03
2023-05-10T12:34:09.079Z,5.93
2023-05-10T12:36:55.585Z,5.85
2023-05-10T12:39:42.885Z,5.93
2023-05-10T12:42:28.774Z,5.88
2023-05-10T12:45:14.124Z,5.90
2023-05-10T12:47:59.720Z,5.75
2023-05-10T12:50:45.223Z,6.35
2023-05-10T12:53:30.866Z,6.50
2023-05-10T12:56:16.876Z,5.93
2023-05-10T12:59:02.740Z,5.80
2023-05-10T13:01:48.317Z,5.85
2023-05-10T13:04:34.311Z,6.90
2023-05-10T13:07:20.245Z,7.57
2023-05-10T13:10:07.579Z,6.82
2023-05-10T13:12:52.988Z,6.70
2023-05-10T13:15:38.726Z,6.00
2023-05-10T13:18:25.458Z,7.00
2023-05-10T13:21:11.240Z,7.25
2023-05-10T13:23:56.820Z,6.53
2023-05-10T13:26:42.845Z,7.80
2023-05-10T13:29:28.784Z,7.68
2023-05-10T13:32:14.830Z,7.50
2023-05-10T13:35:00.792Z,7.05
2023-05-10T13:37:46.612Z,7.53
2023-05-10T13:40:32.155Z,9.77
2023-05-10T13:43:17.933Z,6.70
2023-05-10T13:46:04.000Z,6.50
2023-05-10T13:48:49.733Z,7.65
2023-05-10T13:51:35.747Z,9.48
2023-05-10T13:54:23.174Z,7.40
2023-05-10T13:57:09.015Z,7.18
2023-05-10T13:59:55.916Z,10.55
2023-05-10T14:02:43.403Z,8.73
2023-05-10T14:05:29.490Z,11.13
2023-05-10T14:08:15.857Z,12.82
2023-05-10T14:11:02.011Z,12.10
2023-05-10T14:13:47.824Z,11.45
2023-05-10T14:16:34.043Z,15.15
2023-05-10T14:19:20.386Z,13.73
2023-05-10T14:22:06.682Z,14.00
2023-05-10T14:24:52.546Z,16.65
2023-05-10T14:27:38.440Z,13.52
2023-05-10T14:30:23.891Z,10.73
2023-05-10T14:33:11.451Z,12.45
2023-05-10T14:35:58.413Z,13.45
2023-05-10T14:38:44.561Z,12.20
2023-05-10T14:41:31.395Z,10.82
2023-05-10T14:44:17.334Z,11.18
2023-05-10T14:47:03.621Z,12.52
2023-05-10T14:49:49.582Z,10.30
2023-05-10T14:52:36.031Z,7.18
2023-05-10T14:55:21.923Z,8.55
2023-05-10T14:58:07.971Z,7.93
2023-05-10T15:00:54.027Z,7.22
2023-05-10T15:03:40.637Z,10.00
2023-05-10T15:06:32.799Z,7.68
2023-05-10T15:09:18.517Z,13.57
2023-05-10T15:12:04.465Z,6.80
2023-05-10T15:14:52.783Z,9.63
2023-05-10T15:17:38.598Z,9.00
2023-05-10T15:20:24.199Z,7.07
2023-05-10T15:23:10.339Z,8.07
2023-05-10T15:25:56.896Z,7.93
2023-05-10T15:28:42.597Z,8.43
2023-05-10T15:31:28.550Z,8.43
2023-05-10T15:34:15.069Z,10.00
2023-05-10T15:37:01.132Z,10.75
2023-05-10T15:39:47.044Z,8.23
2023-05-10T15:42:32.835Z,7.95
2023-05-10T15:45:19.220Z,7.88
2023-05-10T15:48:05.709Z,8.98
2023-05-10T15:50:51.848Z,8.13
2023-05-10T15:53:40.984Z,9.02
2023-05-10T15:56:30.762Z,7.93
2023-05-10T15:59:17.175Z,9.05
2023-05-10T16:02:04.473Z,8.23
2023-05-10T16:04:50.430Z,8.27
2023-05-10T16:07:36.745Z,8.73
2023-05-10T16:10:26.680Z,7.78
2023-05-10T16:13:12.681Z,7.65
2023-05-10T16:15:58.820Z,7.30
2023-05-10T16:18:44.612Z,6.78
2023-05-10T16:21:34.521Z,9.73
2023-05-10T16:24:20.076Z,10.18
2023-05-10T16:27:06.186Z,10.48
2023-05-10T16:29:52.260Z,9.73
2023-05-10T16:32:38.075Z,9.90
2023-05-10T16:35:24.171Z,7.80
2023-05-10T16:38:10.648Z,9.32
2023-05-10T16:40:57.487Z,7.78
2023-05-10T16:43:44.683Z,12.40
2023-05-10T16:46:31.201Z,10.98
2023-05-10T16:49:17.399Z,8.80
2023-05-10T16:52:03.595Z,10.45
2023-05-10T16:54:49.641Z,10.52
2023-05-10T16:57:36.045Z,9.18
2023-05-10T17:00:22.597Z,9.38
2023-05-10T17:03:08.881Z,9.77
2023-05-10T17:05:54.630Z,11.75
2023-05-10T17:08:40.459Z,9.88
2023-05-10T17:11:25.821Z,11.63
2023-05-10T17:14:14.817Z,12.02
2023-05-10T17:17:00.681Z,11.65
2023-05-10T17:19:47.464Z,11.18
2023-05-10T17:22:33.263Z,9.40
2023-05-10T17:25:19.854Z,10.18
2023-05-10T17:28:06.033Z,9.10
2023-05-10T17:30:58.320Z,7.82
2023-05-10T17:33:47.850Z,10.85
2023-05-10T17:36:33.941Z,10.23
2023-05-10T17:39:19.627Z,11.45
2023-05-10T17:42:05.683Z,11.55
2023-05-10T17:44:51.532Z,11.32
2023-05-10T17:47:37.182Z,9.95
2023-05-10T17:50:24.177Z,9.43
2023-05-10T17:53:10.121Z,9.93
2023-05-10T17:55:59.370Z,11.52
2023-05-10T17:58:45.751Z,10.35
2023-05-10T18:01:32.435Z,8.35
2023-05-10T18:04:19.098Z,7.47
2023-05-10T18:07:05.587Z,11.15
2023-05-10T18:09:55.234Z,9.38
2023-05-10T18:12:41.293Z,11.07
2023-05-10T18:15:26.932Z,10.27
2023-05-10T18:18:13.078Z,10.32
2023-05-10T18:20:58.808Z,10.55
2023-05-10T18:23:45.706Z,25.55
2023-05-10T18:26:31.700Z,11.68
2023-05-10T18:29:17.327Z,11.88
2023-05-10T18:32:04.332Z,16.25
2023-05-10T18:34:50.023Z,12.43
2023-05-10T18:37:36.885Z,13.30
2023-05-10T18:40:23.972Z,10.43
2023-05-10T18:43:11.221Z,16.83
2023-05-10T18:45:58.054Z,19.83
2023-05-10T18:51:32.788Z,25.60
2023-05-10T18:54:19.047Z,28.88
2023-05-10T18:57:06.003Z,35.15
2023-05-10T18:59:52.849Z,32.80
2023-05-10T19:02:40.671Z,36.08
2023-05-10T19:05:30.287Z,34.28
2023-05-10T19:08:17.562Z,26.08
2023-05-10T19:13:49.760Z,32.08
2023-05-10T19:16:37.242Z,29.88
2023-05-10T19:19:25.341Z,21.13
2023-05-10T19:22:12.829Z,17.60
2023-05-10T19:24:59.316Z,16.92
2023-05-10T19:27:48.786Z,18.33
2023-05-10T19:30:36.105Z,18.02
2023-05-10T19:36:09.223Z,18.17
2023-05-10T19:38:57.078Z,25.63
2023-05-10T19:41:43.881Z,20.02
2023-05-10T19:44:32.854Z,23.15
2023-05-10T19:47:19.083Z,25.70
2023-05-10T19:50:07.159Z,22.85
2023-05-10T19:52:54.616Z,21.38
2023-05-10T19:55:43.655Z,22.42
2023-05-10T19:58:29.931Z,23.98
2023-05-10T20:01:16.023Z,10.63
2023-05-10T20:04:02.001Z,13.27
2023-05-10T20:06:48.261Z,12.70
2023-05-10T20:09:33.993Z,9.18
2023-05-10T20:12:19.700Z,10.00
2023-05-10T20:15:07.655Z,11.40
2023-05-10T20:17:54.098Z,9.07
2023-05-10T20:20:40.188Z,10.77
2023-05-10T20:23:26.815Z,11.63
2023-05-10T20:26:13.231Z,11.13
2023-05-10T20:28:59.317Z,13.45
2023-05-10T20:31:45.202Z,12.20
2023-05-10T20:34:31.192Z,13.10
2023-05-10T20:37:17.848Z,10.73
2023-05-10T20:40:04.575Z,11.48
2023-05-10T20:42:52.111Z,12.52
2023-05-10T20:45:39.036Z,11.85
2023-05-10T20:48:25.260Z,9.95
2023-05-10T20:51:11.206Z,10.40
2023-05-10T20:53:58.145Z,12.05
2023-05-10T20:56:43.814Z,11.60
2023-05-10T20:59:33.798Z,11.90
2023-05-10T21:02:24.724Z,10.90
2023-05-10T21:05:10.523Z,12.45
2023-05-10T21:07:56.519Z,12.27
2023-05-10T21:10:42.499Z,13.25
2023-05-10T21:13:27.965Z,11.70
2023-05-10T21:16:13.748Z,12.40
2023-05-10T21:18:59.752Z,11.85
2023-05-10T21:21:46.095Z,17.33
2023-05-10T21:24:31.905Z,9.85
2023-05-10T21:27:17.516Z,11.02
2023-05-10T21:30:03.655Z,10.23
2023-05-10T21:32:49.721Z,11.20
2023-05-10T21:35:39.539Z,11.35
2023-05-10T21:38:25.404Z,9.25
2023-05-10T21:41:11.323Z,12.88
2023-05-10T21:43:57.875Z,10.10
2023-05-10T21:46:44.226Z,12.80
2023-05-10T21:49:30.678Z,11.48
2023-05-10T21:52:16.547Z,12.93
2023-05-10T21:55:02.061Z,12.52
2023-05-10T21:57:48.010Z,8.60
2023-05-10T22:00:34.568Z,12.88
2023-05-10T22:03:20.343Z,12.25
2023-05-10T22:06:06.418Z,10.70
2023-05-10T22:08:51.794Z,11.50
2023-05-10T22:11:37.566Z,11.82
2023-05-10T22:14:23.212Z,12.40
2023-05-10T22:17:08.903Z,11.18
2023-05-10T22:19:54.521Z,11.55
2023-05-10T22:22:40.191Z,11.25
2023-05-10T22:25:25.556Z,10.75
2023-05-10T22:28:11.493Z,12.27
2023-05-10T22:30:57.437Z,10.02
2023-05-10T22:33:43.462Z,14.13
2023-05-10T22:36:30.112Z,8.48
2023-05-10T22:39:16.067Z,10.93
2023-05-10T22:42:02.078Z,12.98
2023-05-10T22:44:48.031Z,9.23
2023-05-10T22:47:33.730Z,8.90
2023-05-10T22:50:20.042Z,10.77
2023-05-10T22:53:06.716Z,9.82
2023-05-10T22:55:52.687Z,10.30
2023-05-10T22:58:38.480Z,12.05
2023-05-10T23:01:23.964Z,10.05
2023-05-10T23:04:09.782Z,12.35
2023-05-10T23:06:55.547Z,11.13
2023-05-10T23:09:41.217Z,9.70
2023-05-10T23:12:26.762Z,9.63
2023-05-10T23:15:12.176Z,10.63
2023-05-10T23:18:01.086Z,11.18
2023-05-10T23:20:47.022Z,10.75
2023-05-10T23:23:34.094Z,13.75
2023-05-10T23:26:19.888Z,11.68
2023-05-10T23:29:06.162Z,8.73
2023-05-10T23:31:52.345Z,12.48
2023-05-10T23:34:38.268Z,12.13
2023-05-10T23:37:24.044Z,15.18
2023-05-10T23:40:10.089Z,18.15
2023-05-10T23:42:55.686Z,8.95
2023-05-10T23:45:41.639Z,11.80
2023-05-10T23:48:27.619Z,12.25
2023-05-10T23:51:13.518Z,11.23
2023-05-10T23:53:59.313Z,12.82
2023-05-10T23:56:45.030Z,11.77
2023-05-10T23:59:30.761Z,10.45
